createdAt,value
2018-01-24T13:26:28.896Z,99638.84
2018-01-24T13:29:01.895Z,99633.50
2018-01-24T13:31:33.436Z,99629.86
2018-01-24T13:34:10.111Z,99629.16
2018-01-24T13:36:41.629Z,99620.59
2018-01-24T13:39:13.223Z,99598.43
2018-01-24T13:41:44.531Z,99617.66
2018-01-24T13:44:18.971Z,99577.42
2018-01-24T13:46:51.466Z,99607.05
2018-01-24T13:49:26.272Z,99610.35
2018-01-24T13:51:59.364Z,99597.58
2018-01-24T13:54:33.669Z,99534.03
2018-01-24T13:57:09.771Z,99582.48
2018-01-24T13:59:44.332Z,99580.27
2018-01-24T14:02:17.595Z,99576.36
2018-01-24T14:04:49.410Z,99564.19
2018-01-24T14:07:21.446Z,99563.42
2018-01-24T14:10:04.661Z,99562.83
2018-01-24T14:12:38.050Z,99563.75
2018-01-24T14:15:20.560Z,99565.20
2018-01-24T14:17:53.406Z,99557.98
2018-01-24T14:20:26.875Z,99559.94
2018-01-24T14:22:58.299Z,99557.30
2018-01-24T14:25:33.323Z,99555.33
2018-01-24T14:28:05.070Z,99549.30
2018-01-24T14:30:37.062Z,99540.30
2018-01-24T14:33:08.798Z,99553.34
2018-01-24T14:35:40.128Z,99548.22
2018-01-24T14:38:11.667Z,99541.20
2018-01-24T14:40:42.853Z,99540.89
2018-01-24T14:43:14.061Z,99542.17
2018-01-24T14:45:45.622Z,99542.55
2018-01-24T14:48:16.844Z,99546.64
2018-01-24T14:50:48.443Z,99542.91
2018-01-24T14:53:20.356Z,99548.74
2018-01-24T14:55:52.730Z,99537.54
2018-01-24T14:58:24.206Z,99533.19
2018-01-24T15:00:56.192Z,99536.11
2018-01-24T15:03:27.366Z,99538.38
2018-01-24T15:05:59.247Z,99538.09
2018-01-24T15:08:32.953Z,99525.91
2018-01-24T15:11:06.900Z,99531.51
2018-01-24T15:13:39.185Z,99530.59
2018-01-24T15:16:11.134Z,99531.98
2018-01-24T15:18:43.384Z,99544.57
2018-01-24T15:21:14.755Z,99541.48
2018-01-24T15:23:46.546Z,99538.50
2018-01-24T15:26:18.916Z,99536.08
2018-01-24T15:28:50.711Z,99531.66
2018-01-24T15:31:22.409Z,99524.47
2018-01-24T15:33:54.221Z,99534.32
2018-01-24T15:36:25.880Z,99534.50
2018-01-24T15:38:58.240Z,99524.08
2018-01-24T15:41:32.569Z,99524.63
2018-01-24T15:44:03.992Z,99520.09
2018-01-24T15:46:35.754Z,99521.59
2018-01-24T15:49:07.349Z,99515.70
2018-01-24T15:51:39.453Z,99518.72
2018-01-24T15:54:11.349Z,99516.68
2018-01-24T15:56:42.804Z,99480.56
2018-01-24T15:59:16.389Z,99490.81
2018-01-24T16:01:48.028Z,99512.38
2018-01-24T16:04:19.698Z,99509.30
2018-01-24T16:06:51.406Z,99492.00
2018-01-24T16:09:23.365Z,99506.22
2018-01-24T16:11:55.487Z,99505.13
2018-01-24T16:14:30.471Z,99503.41
2018-01-24T16:17:11.306Z,99471.97
2018-01-24T16:19:46.695Z,99489.48
2018-01-24T16:22:30.295Z,99476.95
2018-01-24T16:25:01.902Z,99478.33
2018-01-24T16:27:34.249Z,99481.38
2018-01-24T16:30:06.488Z,99471.58
2018-01-24T16:32:38.054Z,99468.50
2018-01-24T16:35:12.628Z,99467.66
2018-01-24T16:37:45.568Z,99449.07
2018-01-24T16:40:17.931Z,99452.33
2018-01-24T16:42:48.997Z,99466.48
2018-01-24T16:45:21.364Z,99457.95
2018-01-24T16:47:53.591Z,99445.13
2018-01-24T16:50:29.958Z,99451.50
2018-01-24T16:53:02.978Z,99441.61
2018-01-24T16:55:35.419Z,99447.13
2018-01-24T16:58:10.078Z,99427.23
2018-01-24T17:00:41.603Z,99436.37
2018-01-24T17:03:12.860Z,99436.48
2018-01-24T17:05:45.222Z,99431.88
2018-01-24T17:08:20.258Z,99424.02
2018-01-24T17:10:52.574Z,99415.33
2018-01-24T17:13:28.602Z,99426.97
2018-01-24T17:16:01.797Z,99413.45
2018-01-24T17:18:35.069Z,99403.06
2018-01-24T17:21:07.714Z,99419.97
2018-01-24T17:23:40.045Z,99406.62
2018-01-24T17:26:12.559Z,99410.72
2018-01-24T17:28:44.660Z,99406.90
2018-01-24T17:31:18.074Z,99412.16
2018-01-24T17:33:51.892Z,99404.48
2018-01-24T17:36:28.765Z,99392.69
2018-01-24T17:39:00.938Z,99417.20
2018-01-24T17:41:35.698Z,99404.11
2018-01-24T17:44:08.159Z,99410.05
2018-01-24T17:46:41.608Z,99400.77
2018-01-24T17:49:14.261Z,99392.13
2018-01-24T17:51:45.975Z,99385.47
2018-01-24T17:54:17.802Z,99381.59
2018-01-24T17:56:49.600Z,99372.16
2018-01-24T17:59:29.665Z,99305.81
2018-01-24T18:02:01.722Z,99365.73
2018-01-24T18:04:35.358Z,99350.67
2018-01-24T18:07:08.772Z,99357.11
2018-01-24T18:09:41.664Z,99357.05
2018-01-24T18:12:18.605Z,99349.95
2018-01-24T18:14:51.166Z,99346.06
2018-01-24T18:17:28.979Z,99354.52
2018-01-24T18:20:04.372Z,99325.18
2018-01-24T18:22:38.015Z,99346.23
2018-01-24T18:27:46.273Z,99352.69
2018-01-24T18:32:55.939Z,99322.63
2018-01-24T18:35:27.429Z,99320.21
2018-01-24T18:37:59.206Z,99277.10
2018-01-24T18:40:33.432Z,99326.56
2018-01-24T18:43:04.700Z,99323.62
2018-01-24T18:45:37.033Z,99323.00
2018-01-24T18:48:09.717Z,99313.95
2018-01-24T18:50:41.383Z,99300.66
2018-01-24T18:53:13.874Z,99295.33
2018-01-24T18:55:46.605Z,99296.94
2018-01-24T18:58:18.930Z,99294.78
2018-01-24T19:00:50.936Z,99297.63
2018-01-24T19:03:22.996Z,99299.55
2018-01-24T19:05:54.836Z,99296.16
2018-01-24T19:08:26.711Z,99298.81
2018-01-24T19:11:00.871Z,99302.82
2018-01-24T19:13:35.140Z,99299.61
2018-01-24T19:16:06.777Z,99310.30
2018-01-24T19:18:38.316Z,99320.89
2018-01-24T19:21:10.212Z,99319.78
2018-01-24T19:23:44.448Z,99319.06
2018-01-24T19:26:20.829Z,99303.33
2018-01-24T19:28:55.114Z,99290.09
2018-01-24T19:31:38.113Z,99295.50
2018-01-24T19:34:10.703Z,99287.73
2018-01-24T19:36:46.847Z,99255.55
2018-01-24T19:39:19.895Z,99274.05
2018-01-24T19:41:53.352Z,99264.97
2018-01-24T19:44:28.798Z,99286.16
2018-01-24T19:59:55.686Z,99268.23
2018-01-24T20:02:47.573Z,99236.06
2018-01-24T20:05:19.683Z,99272.24
2018-01-24T20:07:52.408Z,99264.25
2018-01-24T20:10:28.766Z,99271.78
2018-01-24T20:13:01.197Z,99242.70
2018-01-24T20:15:34.011Z,99231.02
2018-01-24T20:18:06.299Z,99226.64
2018-01-24T20:20:38.667Z,99212.19
2018-01-24T20:23:11.806Z,99205.95
2018-01-24T20:25:46.273Z,99217.14
2018-01-24T20:28:17.899Z,99229.49
2018-01-24T20:30:50.347Z,99225.95
2018-01-24T20:33:22.730Z,99229.03
2018-01-24T20:35:54.902Z,99215.63
2018-01-24T20:38:28.616Z,99207.83
2018-01-24T20:41:00.832Z,99213.64
2018-01-24T20:43:35.030Z,99197.37
2018-01-24T20:46:08.241Z,99212.92
2018-01-24T20:48:40.041Z,99197.75
2018-01-24T20:51:12.831Z,99186.34
2018-01-24T20:53:44.901Z,99169.25
2018-01-24T20:56:19.304Z,99172.11
2018-01-24T20:58:52.036Z,99171.04
2018-01-24T21:01:26.418Z,99177.90
2018-01-24T21:04:00.657Z,99137.17
2018-01-24T21:06:34.187Z,99174.92
2018-01-24T21:09:10.713Z,99169.53
2018-01-24T21:11:42.413Z,99159.84
2018-01-24T21:14:15.548Z,99180.41
2018-01-24T21:16:47.156Z,99189.67
2018-01-24T21:19:19.226Z,99188.84
2018-01-24T21:21:50.790Z,99193.06
2018-01-24T21:24:23.501Z,99187.84
2018-01-24T21:26:56.714Z,99202.40
2018-01-24T21:30:40.456Z,99158.58
2018-01-24T21:33:21.547Z,99189.27
2018-01-24T21:36:03.689Z,99187.86
2018-01-24T21:38:35.023Z,99210.01
2018-01-24T21:41:08.856Z,99205.07
2018-01-24T21:43:40.178Z,99201.76
2018-01-24T21:46:14.320Z,99206.69
2018-01-24T21:48:50.328Z,99197.16
2018-01-24T21:51:23.343Z,99175.46
2018-01-24T21:53:56.255Z,99198.25
2018-01-24T21:56:37.042Z,99206.86
2018-01-24T21:59:11.673Z,99206.16
2018-01-24T22:01:44.374Z,99200.27
2018-01-24T22:04:17.788Z,99218.45
2018-01-24T22:06:50.391Z,99209.23
2018-01-24T22:09:22.491Z,99202.75
2018-01-24T22:11:55.390Z,99196.52
2018-01-24T22:14:26.859Z,99198.57
2018-01-24T22:16:59.152Z,99205.66
2018-01-24T22:19:31.990Z,99208.13
2018-01-24T22:22:04.135Z,99201.16
2018-01-24T22:24:36.220Z,99167.26
2018-01-24T22:27:07.994Z,99203.53
2018-01-24T22:29:39.862Z,99204.47
2018-01-24T22:32:11.844Z,99208.17
2018-01-24T22:34:44.768Z,99209.98
2018-01-24T22:37:16.010Z,99200.56
2018-01-24T22:39:47.558Z,99212.96
2018-01-24T22:42:18.964Z,99210.98
2018-01-24T22:44:50.867Z,99211.98
2018-01-24T22:47:25.580Z,99216.68
2018-01-24T22:49:58.818Z,99214.19
2018-01-24T22:52:32.956Z,99227.19
2018-01-24T22:55:05.271Z,99214.41
